createdAt,value
2019-03-06T00:01:46.513Z,66.96
2019-03-06T00:04:17.181Z,66.01
2019-03-06T00:06:47.716Z,65.65
2019-03-06T00:12:05.727Z,65.35
2019-03-06T00:14:36.197Z,65.34
2019-03-06T00:20:02.074Z,65.56
2019-03-06T00:22:34.220Z,65.84
2019-03-06T00:25:04.783Z,66.05
2019-03-06T00:27:35.321Z,65.77
2019-03-06T00:30:27.920Z,65.79
2019-03-06T00:32:58.541Z,65.57
2019-03-06T00:38:16.261Z,65.74
2019-03-06T00:41:05.611Z,65.68
2019-03-06T00:43:36.170Z,65.94
2019-03-06T00:46:06.631Z,66.14
2019-03-06T00:48:37.162Z,66.17
2019-03-06T00:53:54.146Z,66.51
2019-03-06T00:59:17.443Z,66.79
2019-03-06T01:01:47.944Z,66.58
2019-03-06T01:04:25.919Z,66.64
2019-03-06T01:06:56.479Z,66.81
2019-03-06T01:09:26.960Z,66.63
2019-03-06T01:11:57.464Z,66.46
2019-03-06T01:20:33.187Z,66.72
2019-03-06T01:23:03.799Z,66.65
2019-03-06T01:28:24.639Z,66.40
2019-03-06T01:30:55.070Z,66.48
2019-03-06T01:39:49.754Z,66.91
2019-03-06T01:42:39.098Z,67.02
2019-03-06T01:45:11.661Z,66.94
2019-03-06T01:56:16.216Z,66.14
2019-03-06T01:58:46.679Z,66.16
2019-03-06T02:01:17.170Z,66.35
2019-03-06T02:03:47.706Z,66.28
2019-03-06T02:06:20.062Z,66.12
2019-03-06T02:08:50.603Z,66.03
2019-03-06T02:11:21.278Z,66.06
2019-03-06T02:13:51.751Z,66.20
2019-03-06T02:16:22.513Z,66.03
2019-03-06T02:18:52.985Z,66.22
2019-03-06T02:21:23.618Z,66.47
2019-03-06T02:23:54.212Z,66.18
2019-03-06T02:26:24.742Z,66.30
2019-03-06T02:28:55.479Z,66.23
2019-03-06T02:31:25.912Z,66.28
2019-03-06T02:33:56.443Z,66.51
2019-03-06T02:36:26.918Z,66.61
2019-03-06T02:38:57.487Z,66.74
2019-03-06T02:41:28.023Z,66.41
2019-03-06T02:43:58.603Z,65.94
2019-03-06T02:52:13.290Z,65.56
2019-03-06T02:54:43.743Z,65.56
2019-03-06T02:57:14.410Z,65.34
2019-03-06T03:00:09.843Z,65.46
2019-03-06T03:02:59.328Z,65.30
2019-03-06T03:05:37.569Z,65.30
2019-03-06T03:08:08.020Z,65.51
2019-03-06T03:10:38.613Z,65.51
2019-03-06T03:13:09.114Z,65.61
2019-03-06T03:15:39.653Z,65.68
2019-03-06T03:18:10.216Z,66.30
2019-03-06T03:20:40.792Z,65.78
2019-03-06T03:23:11.378Z,65.82
2019-03-06T03:25:41.889Z,66.18
2019-03-06T03:28:12.354Z,65.92
2019-03-06T03:30:42.896Z,66.00
2019-03-06T03:36:02.715Z,66.25
2019-03-06T03:38:33.141Z,66.29
2019-03-06T03:41:03.683Z,66.57
2019-03-06T03:43:34.397Z,66.14
2019-03-06T03:46:04.884Z,66.19
2019-03-06T03:48:35.276Z,65.84
2019-03-06T03:51:05.748Z,66.03
2019-03-06T03:53:36.231Z,66.18
2019-03-06T03:56:13.855Z,65.95
2019-03-06T03:58:44.371Z,65.86
2019-03-06T04:01:15.161Z,65.55
2019-03-06T04:03:45.784Z,65.67
2019-03-06T04:06:16.312Z,66.12
2019-03-06T04:08:46.771Z,66.56
2019-03-06T04:11:17.327Z,66.58
2019-03-06T04:13:47.765Z,66.49
2019-03-06T04:16:18.294Z,66.32
2019-03-06T04:18:48.857Z,66.42
2019-03-06T04:21:19.371Z,66.68
2019-03-06T04:26:59.410Z,66.81
2019-03-06T04:32:39.493Z,67.25
2019-03-06T04:35:10.107Z,67.79
2019-03-06T04:40:35.951Z,67.75
2019-03-06T04:43:06.535Z,67.03
2019-03-06T04:48:44.553Z,67.85
2019-03-06T04:51:30.048Z,67.84
2019-03-06T04:54:21.712Z,67.58
2019-03-06T04:59:56.938Z,68.10
2019-03-06T05:02:27.503Z,67.71
2019-03-06T05:08:05.772Z,67.17
2019-03-06T05:10:43.267Z,67.76
2019-03-06T05:13:13.823Z,67.82
2019-03-06T05:15:44.176Z,68.71
2019-03-06T05:18:33.489Z,67.46
2019-03-06T05:21:04.059Z,68.09
2019-03-06T05:23:36.151Z,68.37
2019-03-06T05:38:34.248Z,68.66
2019-03-06T05:41:04.797Z,68.19
2019-03-06T05:43:37.063Z,67.63
2019-03-06T05:49:11.828Z,67.61
2019-03-06T05:54:48.864Z,68.39
2019-03-06T05:57:31.569Z,68.91
2019-03-06T06:03:14.194Z,67.99
2019-03-06T06:05:44.837Z,67.91
2019-03-06T06:08:35.849Z,68.44
2019-03-06T06:14:00.060Z,68.50
2019-03-06T06:16:30.611Z,68.76
2019-03-06T06:19:01.827Z,68.67
2019-03-06T06:27:35.118Z,69.43
2019-03-06T06:30:05.888Z,69.42
2019-03-06T06:32:36.581Z,70.01
2019-03-06T06:35:08.171Z,69.53
2019-03-06T06:37:39.038Z,69.97
2019-03-06T06:40:09.808Z,69.73
2019-03-06T06:45:31.446Z,68.78
2019-03-06T06:48:35.471Z,69.25
2019-03-06T06:51:42.887Z,68.99
2019-03-06T06:54:35.006Z,68.66
2019-03-06T06:57:31.914Z,69.23
2019-03-06T07:00:59.195Z,68.94
2019-03-06T07:07:16.822Z,68.93
2019-03-06T07:10:06.115Z,69.06
2019-03-06T07:12:55.605Z,69.23
2019-03-06T07:15:45.010Z,69.81
2019-03-06T07:18:21.469Z,70.27
2019-03-06T07:20:57.724Z,69.95
2019-03-06T07:23:47.071Z,69.77
2019-03-06T07:26:25.399Z,69.94
2019-03-06T07:29:04.569Z,70.30
2019-03-06T07:31:53.923Z,70.41
2019-03-06T07:34:44.274Z,70.73
2019-03-06T07:37:33.572Z,71.13
2019-03-06T07:43:15.304Z,71.52
2019-03-06T07:46:05.878Z,72.11
2019-03-06T07:49:02.131Z,71.81
2019-03-06T07:51:51.427Z,71.91
2019-03-06T07:54:40.703Z,72.09
2019-03-06T07:57:30.022Z,72.86
2019-03-06T08:00:00.505Z,72.59
2019-03-06T08:03:10.510Z,72.72
2019-03-06T08:05:41.335Z,72.72
2019-03-06T08:08:11.721Z,72.04
2019-03-06T08:10:42.244Z,72.12
2019-03-06T08:13:52.319Z,72.62
2019-03-06T08:16:30.837Z,72.43
2019-03-06T08:19:20.121Z,72.54
2019-03-06T08:22:09.510Z,72.20
2019-03-06T08:24:58.840Z,72.62
2019-03-06T08:27:30.321Z,72.74
2019-03-06T08:30:00.844Z,72.59
2019-03-06T08:32:32.722Z,72.34
2019-03-06T08:35:03.279Z,72.53
2019-03-06T08:37:33.784Z,72.91
2019-03-06T08:40:10.308Z,72.68
2019-03-06T08:42:40.984Z,73.32
2019-03-06T08:48:21.261Z,73.13
2019-03-06T08:51:10.439Z,73.34
2019-03-06T08:53:59.765Z,73.65
2019-03-06T08:56:40.264Z,73.62
2019-03-06T08:59:29.605Z,73.64
2019-03-06T09:02:19.104Z,73.47
2019-03-06T09:08:00.753Z,73.31
2019-03-06T09:10:51.126Z,73.50
2019-03-06T09:13:56.694Z,73.69
2019-03-06T09:23:22.872Z,74.21
2019-03-06T09:26:05.771Z,73.84
2019-03-06T09:29:00.981Z,73.18
2019-03-06T09:31:43.180Z,72.85
2019-03-06T09:34:32.858Z,72.86
2019-03-06T09:37:22.259Z,72.88
2019-03-06T09:40:02.319Z,73.43
2019-03-06T09:42:51.672Z,73.07
2019-03-06T09:48:39.597Z,73.57
2019-03-06T09:51:19.454Z,73.66
2019-03-06T09:54:31.556Z,73.88
2019-03-06T09:57:22.070Z,73.75
2019-03-06T10:00:11.793Z,74.04
2019-03-06T10:05:59.300Z,74.50
2019-03-06T10:08:52.639Z,74.08
2019-03-06T10:11:32.621Z,73.72
2019-03-06T10:14:09.065Z,73.62
2019-03-06T10:16:48.827Z,73.32
2019-03-06T10:19:47.319Z,73.21
2019-03-06T10:22:17.925Z,73.48
2019-03-06T10:24:48.468Z,73.29
2019-03-06T10:27:24.307Z,73.27
2019-03-06T10:29:54.756Z,73.18
2019-03-06T10:32:25.237Z,73.49
2019-03-06T10:37:45.732Z,72.51
2019-03-06T10:43:23.700Z,72.63
2019-03-06T10:48:48.483Z,72.15
2019-03-06T10:51:48.163Z,72.08
2019-03-06T10:54:18.752Z,71.95
2019-03-06T10:56:49.561Z,72.11
2019-03-06T10:59:20.255Z,72.08
2019-03-06T11:02:09.701Z,71.83
2019-03-06T11:05:16.528Z,71.72
2019-03-06T11:10:39.830Z,71.12
2019-03-06T11:16:39.910Z,71.19
2019-03-06T11:22:13.293Z,71.21
2019-03-06T11:27:39.815Z,71.37
2019-03-06T11:39:22.734Z,71.83
2019-03-06T11:45:04.202Z,71.66
2019-03-06T11:47:34.849Z,71.58
2019-03-06T11:53:08.683Z,71.33
2019-03-06T11:55:39.531Z,71.12
2019-03-06T12:10:10.350Z,70.82
2019-03-06T12:15:37.521Z,71.38
2019-03-06T12:18:08.067Z,71.50
2019-03-06T12:20:40.138Z,71.28
2019-03-06T12:23:10.802Z,71.20
2019-03-06T12:25:48.337Z,71.62
2019-03-06T12:28:33.269Z,71.62
2019-03-06T12:34:35.871Z,71.54
2019-03-06T12:40:50.103Z,71.04
2019-03-06T12:43:20.551Z,71.50
2019-03-06T12:52:46.257Z,71.05
2019-03-06T12:55:23.862Z,71.15
2019-03-06T12:58:06.294Z,71.17
2019-03-06T13:00:48.699Z,70.88
2019-03-06T13:03:19.211Z,70.66
2019-03-06T13:05:49.775Z,70.25
2019-03-06T13:11:15.125Z,70.26
2019-03-06T13:13:45.621Z,69.86
2019-03-06T13:16:16.157Z,69.71
2019-03-06T13:18:52.119Z,69.69
2019-03-06T13:24:37.674Z,69.48
2019-03-06T13:33:21.567Z,69.43
2019-03-06T13:35:52.959Z,69.68
2019-03-06T13:44:03.122Z,69.39
2019-03-06T13:46:34.151Z,69.38
2019-03-06T13:49:04.743Z,69.04
2019-03-06T13:51:35.338Z,69.17
2019-03-06T13:54:05.886Z,69.16
2019-03-06T13:56:38.435Z,69.58
2019-03-06T13:59:27.707Z,69.46
2019-03-06T14:01:58.301Z,69.54
2019-03-06T14:04:30.884Z,69.95
2019-03-06T14:07:12.259Z,70.12
2019-03-06T14:09:42.650Z,70.17
2019-03-06T14:12:13.158Z,70.12
2019-03-06T14:17:31.406Z,69.96
2019-03-06T14:20:01.932Z,69.88
2019-03-06T14:25:42.833Z,69.69
2019-03-06T14:34:00.074Z,69.70
2019-03-06T14:40:09.368Z,69.87
2019-03-06T14:42:39.068Z,69.80
2019-03-06T14:45:33.724Z,70.07
2019-03-06T14:53:44.388Z,70.08
2019-03-06T14:56:15.419Z,70.06
2019-03-06T14:59:12.376Z,70.18
2019-03-06T15:01:42.815Z,69.88
2019-03-06T15:04:13.351Z,70.09
2019-03-06T15:06:44.098Z,70.58
2019-03-06T15:09:44.438Z,70.87
2019-03-06T15:12:14.980Z,70.80
2019-03-06T15:14:45.731Z,70.72
2019-03-06T15:17:16.363Z,70.88
2019-03-06T15:19:46.955Z,70.71
2019-03-06T15:22:22.776Z,70.59
2019-03-06T15:24:53.299Z,70.83
2019-03-06T15:31:04.859Z,70.65
2019-03-06T15:33:35.649Z,70.73
2019-03-06T15:39:00.923Z,70.79
2019-03-06T15:41:33.373Z,70.95
2019-03-06T15:44:03.850Z,71.15
2019-03-06T15:46:34.370Z,71.36
2019-03-06T15:49:12.381Z,71.86
2019-03-06T15:51:44.550Z,72.20
2019-03-06T15:54:15.095Z,72.24
2019-03-06T15:56:45.838Z,72.30
2019-03-06T16:02:32.421Z,72.35
2019-03-06T16:07:50.821Z,71.92
2019-03-06T16:10:21.686Z,71.72
2019-03-06T16:12:52.373Z,71.94
2019-03-06T16:15:43.697Z,71.97
2019-03-06T16:18:14.820Z,72.02
2019-03-06T16:21:04.475Z,71.90
2019-03-06T16:23:35.089Z,71.48
2019-03-06T16:26:05.587Z,71.40
2019-03-06T16:28:36.056Z,71.25
2019-03-06T16:31:06.425Z,71.91
2019-03-06T16:33:36.905Z,72.10
2019-03-06T16:36:07.250Z,72.07
2019-03-06T16:38:37.794Z,72.51
2019-03-06T16:41:08.293Z,72.77
2019-03-06T16:43:44.595Z,72.94
2019-03-06T16:46:22.308Z,73.04
2019-03-06T16:48:53.002Z,73.24
2019-03-06T16:51:23.980Z,73.09
2019-03-06T16:53:54.567Z,73.44
2019-03-06T16:56:47.355Z,73.23
2019-03-06T16:59:18.046Z,73.65
2019-03-06T17:01:49.177Z,73.04
2019-03-06T17:04:20.238Z,73.05
2019-03-06T17:07:09.977Z,73.10
2019-03-06T17:09:46.311Z,73.22
2019-03-06T17:12:37.214Z,73.63
2019-03-06T17:18:10.160Z,73.59
2019-03-06T17:20:40.791Z,73.66
2019-03-06T17:23:11.327Z,73.59
2019-03-06T17:28:25.014Z,73.97
2019-03-06T17:30:55.457Z,73.93
2019-03-06T17:33:44.918Z,74.26
2019-03-06T17:36:15.526Z,73.97
2019-03-06T17:41:37.241Z,73.78
2019-03-06T17:44:07.661Z,73.68
2019-03-06T17:46:38.256Z,73.28
2019-03-06T17:49:29.485Z,73.24
2019-03-06T17:52:01.200Z,73.62
2019-03-06T17:54:31.450Z,73.75
2019-03-06T17:57:01.618Z,73.55
2019-03-06T17:59:32.195Z,73.84
2019-03-06T18:04:47.264Z,74.12
2019-03-06T18:07:38.337Z,74.27
2019-03-06T18:13:00.956Z,74.51
2019-03-06T18:15:52.401Z,75.07
2019-03-06T18:18:43.268Z,75.06
2019-03-06T18:21:39.934Z,74.56
2019-03-06T18:27:51.169Z,74.84
2019-03-06T18:30:22.391Z,75.02
2019-03-06T18:32:56.715Z,74.69
2019-03-06T18:38:37.813Z,74.30
2019-03-06T18:41:08.106Z,74.03
2019-03-06T18:43:38.455Z,73.86
2019-03-06T18:46:08.962Z,74.02
2019-03-06T18:48:39.319Z,74.48
2019-03-06T18:51:09.724Z,74.26
2019-03-06T18:53:39.980Z,74.37
2019-03-06T18:56:10.205Z,74.40
2019-03-06T18:58:40.537Z,74.49
2019-03-06T19:01:10.737Z,74.21
2019-03-06T19:04:03.803Z,74.67
2019-03-06T19:06:34.566Z,74.42
2019-03-06T19:12:00.329Z,75.11
2019-03-06T19:14:31.180Z,75.26
2019-03-06T19:17:02.428Z,75.71
2019-03-06T19:22:42.851Z,76.23
2019-03-06T19:28:26.884Z,76.05
2019-03-06T19:30:59.912Z,75.92
2019-03-06T19:33:30.452Z,76.19
2019-03-06T19:36:02.706Z,75.74
2019-03-06T19:38:33.591Z,75.66
2019-03-06T19:41:10.101Z,75.87
2019-03-06T19:43:58.933Z,75.92
2019-03-06T19:46:30.404Z,75.91
2019-03-06T19:49:00.945Z,76.35
2019-03-06T19:51:31.537Z,75.94
2019-03-06T19:54:02.019Z,75.75
2019-03-06T19:56:32.732Z,75.94
2019-03-06T19:59:23.690Z,76.15
2019-03-06T20:05:07.898Z,76.40
2019-03-06T20:08:09.445Z,76.84
2019-03-06T20:14:06.467Z,77.40
2019-03-06T20:19:40.684Z,76.45
2019-03-06T20:22:12.033Z,77.09
2019-03-06T20:24:49.830Z,76.87
2019-03-06T20:27:20.732Z,76.80
2019-03-06T20:29:52.294Z,76.79
2019-03-06T20:32:47.306Z,76.89
2019-03-06T20:41:35.719Z,76.93
2019-03-06T20:44:07.709Z,77.22
2019-03-06T20:46:40.618Z,77.32
2019-03-06T20:49:49.707Z,77.51
2019-03-06T20:52:50.177Z,77.28
2019-03-06T20:55:26.100Z,78.08
2019-03-06T21:01:23.500Z,78.69
2019-03-06T21:04:20.544Z,78.30
2019-03-06T21:07:18.249Z,78.21
2019-03-06T21:12:40.529Z,78.22
2019-03-06T21:15:12.439Z,77.93
2019-03-06T21:21:15.110Z,78.46
2019-03-06T21:23:56.773Z,78.60
2019-03-06T21:26:28.153Z,78.39
2019-03-06T21:28:58.407Z,78.71
2019-03-06T21:34:46.620Z,78.92
2019-03-06T21:37:16.876Z,78.71
2019-03-06T21:39:47.183Z,77.93
2019-03-06T21:42:30.742Z,78.22
2019-03-06T21:45:03.349Z,78.29
2019-03-06T21:50:33.073Z,78.91
2019-03-06T21:53:03.453Z,79.43
2019-03-06T21:55:33.834Z,78.78
2019-03-06T21:58:04.098Z,79.10
2019-03-06T22:00:35.977Z,79.31
2019-03-06T22:03:06.220Z,79.16
2019-03-06T22:05:36.451Z,79.08
2019-03-06T22:08:20.004Z,79.27
2019-03-06T22:10:50.229Z,79.47
2019-03-06T22:13:20.466Z,79.43
2019-03-06T22:15:50.818Z,79.51
2019-03-06T22:18:21.104Z,79.58
2019-03-06T22:20:51.362Z,79.08
2019-03-06T22:23:21.618Z,78.76
2019-03-06T22:25:51.852Z,79.33
2019-03-06T22:28:22.081Z,79.49
2019-03-06T22:30:52.328Z,79.85
2019-03-06T22:33:22.637Z,80.01
2019-03-06T22:38:42.159Z,79.75
2019-03-06T22:41:12.409Z,79.47
2019-03-06T22:43:42.875Z,79.61
2019-03-06T22:46:13.131Z,79.55
2019-03-06T22:48:43.416Z,79.37
2019-03-06T22:51:13.755Z,79.72
2019-03-06T22:53:44.007Z,79.89
2019-03-06T22:56:14.307Z,79.63
2019-03-06T22:58:44.615Z,80.02
2019-03-06T23:09:43.107Z,80.92
2019-03-06T23:12:13.487Z,81.13
2019-03-06T23:14:43.788Z,81.29
2019-03-06T23:17:14.145Z,81.48
2019-03-06T23:19:44.362Z,81.32
2019-03-06T23:22:14.608Z,81.70
2019-03-06T23:24:44.792Z,81.83
2019-03-06T23:27:15.131Z,81.80
2019-03-06T23:29:45.353Z,81.86
2019-03-06T23:35:13.847Z,81.99
2019-03-06T23:37:44.047Z,81.96
2019-03-06T23:40:14.424Z,82.20
2019-03-06T23:42:44.639Z,82.01
2019-03-06T23:45:14.917Z,82.36
2019-03-06T23:47:45.234Z,82.66
2019-03-06T23:53:22.842Z,82.48
2019-03-06T23:55:53.058Z,82.53
2019-03-06T23:58:23.326Z,82.23
